West Peterborough, New Hampshire
Current Conditions -  °F | °C
As of 5:07 AM on Sunday 25 Jan 2015 (Local Time) from KAFN Reporting Station
Overcast Overcast  
Wind Chill: 24°   Ceiling: 4700
Heat Index: 30°   Visibility: 10mi
Dew Point: 24°   Wind: 6mph
Humidity: 79%   Direction: NA
Pressure: 29.39"   Gusts: NA
Location:  42.89°N, 71.99°W
Report Text: KAFN 251007Z AUTO VRB05KT 10SM FEW021 SCT030 OVC047 M01/M04 A2939 RMK AO2 T10111044
Loading
Personal Weather Stations






























Interactive Weather Map New forecast layout! Learn more

10-Day Weather Forecast

Advertisements
Track Severe Weather on mobile